Latest Weather Observations for Geraldton Airport

IDW60801

Issued at 10:35 am WST Wednesday 3 September 2014 (issued every 30 minutes, with the page automatically refreshed every 10 minutes)

About weather observations | Map of weather stations | Latest weather observations for WA | Other Formats
Station Details ID: 008315 Name: GERALDTON AIRPORT Lat: -28.80 Lon: 114.70 Height: 29.7 m
Data from the previous 72 hours. | See also: Recent months at Geraldton Airport
Date/Time
WST
Temp
°C
App
Temp
°C
Dew
Point
Rel
Hum
%
Delta-T
°C
Wind Press
QNH
hPa
Press
MSL
hPa
Rain
since 9 am
mm
Dir
 
Spd
km/h
Gust
km/h
Spd
kts
Gust
kts
03/10:30am 19.5 17.2 11.6 60 4.3 ESE 15 19 8 10 1019.9 - 0.0
03/10:00am 18.9 16.2 11.8 63 3.9 ESE 17 20 9 11 1019.8 - 0.0
03/09:30am 18.1 14.8 11.5 65 3.6 E 20 24 11 13 1019.8 - 0.0
03/09:00am 17.2 15.8 13.3 78 2.2 ESE 13 17 7 9 1019.8 1019.9 0.0
03/08:30am 16.3 15.7 13.5 83 1.6 ESE 9 15 5 8 1020.0 - 0.0
03/08:00am 15.3 13.9 13.4 88 1.1 SSE 13 15 7 8 1019.6 - 0.0
03/07:30am 14.9 13.8 13.1 89 1.0 SSE 11 15 6 8 1019.4 - 0.0
03/07:00am 14.7 14.3 13.1 90 0.9 ESE 7 9 4 5 1019.5 - 0.0
03/06:30am 14.7 13.5 12.9 89 1.0 SE 11 17 6 9 1018.6 - 0.0
03/06:00am 14.8 12.5 13.0 89 1.0 SE 17 20 9 11 1018.0 1018.1 0.0
03/05:30am 15.0 13.5 13.2 89 1.0 SSE 13 17 7 9 1018.2 - 0.0
03/05:00am 14.9 14.7 13.5 91 0.8 SSE 7 9 4 5 1018.5 - 0.0
03/04:30am 15.0 14.7 13.4 90 0.9 SE 7 9 4 5 1018.0 - 0.0
03/04:00am 14.9 13.5 13.5 91 0.8 SSE 13 15 7 8 1017.5 - 0.0
03/03:30am 14.7 13.8 13.7 94 0.6 E 11 13 6 7 1017.6 - 0.0
03/03:00am 15.0 14.9 13.9 93 0.6 SE 7 7 4 4 1018.1 1018.2 0.0
03/02:30am 15.1 15.0 14.0 93 0.6 SE 7 11 4 6 1018.4 - 0.0
03/02:00am 15.3 15.3 14.3 94 0.6 SE 7 9 4 5 1018.5 - 0.0
03/01:30am 15.6 15.3 14.3 92 0.7 SSE 9 13 5 7 1018.5 - 0.0
03/01:00am 15.8 15.1 14.4 91 0.8 SSE 11 15 6 8 1018.5 - 0.0
03/12:30am 16.0 16.3 14.9 93 0.6 E 7 9 4 5 1019.1 - 0.0
03/12:00am 16.6 17.2 15.2 91 0.8 SE 6 7 3 4 1019.3 1019.4 0.0
 
Date/Time
WST
Temp
°C
App
Temp
°C
Dew
Point
Rel
Hum
%
Delta-T
°C
Wind Press
QNH
hPa
Press
MSL
hPa
Rain
since 9 am
mm
Dir
 
Spd
km/h
Gust
km/h
Spd
kts
Gust
kts
02/11:30pm 17.0 17.7 15.5 91 0.9 SSE 6 7 3 4 1019.2 - 0.0
02/11:00pm 17.0 17.1 15.4 90 0.9 SSE 9 11 5 6 1019.0 - 0.0
02/10:30pm 16.9 16.9 15.2 90 1.0 ESE 9 13 5 7 1019.0 - 0.0
02/10:00pm 17.0 17.4 15.3 90 1.0 SE 7 9 4 5 1019.5 - 0.0
02/09:30pm 17.2 17.8 15.3 88 1.1 ESE 6 11 3 6 1019.6 - 0.0
02/09:00pm 18.3 17.8 14.9 80 2.0 S 11 13 6 7 1019.0 1019.1 0.0
02/08:30pm 18.4 17.9 15.0 80 2.0 SSW 11 13 6 7 1019.2 - 0.0
02/08:00pm 18.6 18.1 14.8 78 2.2 SSW 11 13 6 7 1019.2 - 0.0
02/07:30pm 19.1 18.5 14.6 75 2.6 SSW 11 15 6 8 1018.7 - 0.0
02/07:00pm 19.3 18.8 14.9 75 2.6 SW 11 15 6 8 1018.5 - 0.0
02/06:30pm 19.9 18.8 14.4 70 3.2 SW 13 17 7 9 1018.0 - 0.0
02/06:00pm 20.3 19.2 15.2 72 3.0 WSW 15 20 8 11 1017.9 1018.0 0.0
02/05:30pm 20.9 19.3 15.1 69 3.4 SW 17 24 9 13 1017.3 - 0.0
02/05:00pm 21.4 19.2 15.0 67 3.8 SW 20 30 11 16 1016.9 - 0.0
02/04:30pm 21.8 19.8 15.0 65 4.0 WSW 19 24 10 13 1016.6 - 0.0
02/04:00pm 22.2 20.3 15.1 64 4.2 W 19 26 10 14 1016.4 - 0.0
02/03:30pm 23.1 21.3 15.5 62 4.6 W 19 28 10 15 1016.0 - 0.0
02/03:00pm 23.0 21.7 15.9 64 4.3 W 17 22 9 12 1015.7 1015.7 0.0
02/02:30pm 22.7 21.3 15.6 64 4.3 W 17 22 9 12 1015.6 - 0.0
02/02:00pm 22.7 21.1 16.4 67 3.8 WNW 20 24 11 13 1015.5 - 0.0
02/01:30pm 23.1 21.2 16.6 67 4.0 WNW 22 30 12 16 1015.4 - 0.0
02/01:00pm 23.6 20.9 16.6 65 4.3 WNW 26 33 14 18 1015.4 - 0.0
02/12:30pm 22.8 19.9 15.1 62 4.6 NW 24 32 13 17 1015.5 - 0.0
02/12:00pm 22.7 18.9 12.4 52 5.9 NW 24 32 13 17 1015.7 1015.7 0.0
02/11:30am 24.6 20.1 9.9 39 8.1 NW 24 32 13 17 1015.8 - 0.0
02/11:00am 23.0 19.2 9.8 43 7.2 NW 20 30 11 16 1016.1 - 0.0
02/10:30am 24.5 20.8 9.4 38 8.2 NW 19 26 10 14 1016.2 - 0.0
02/10:00am 21.7 18.4 9.4 45 6.6 N 17 20 9 11 1016.0 - 0.0
02/09:30am 20.5 17.5 9.2 48 6.0 N 15 19 8 10 1015.8 - 0.0
02/09:00am 20.7 17.5 10.0 50 5.8 NNE 17 20 9 11 1015.7 1015.7 0.0
02/08:30am 18.7 16.0 9.1 53 5.0 NNE 13 20 7 11 1015.6 - 0.0
02/08:00am 17.8 15.7 9.6 58 4.3 NE 11 15 6 8 1015.4 - 0.0
02/07:30am 16.5 13.4 9.0 61 3.9 ENE 15 19 8 10 1015.3 - 0.0
02/07:00am 17.7 14.1 6.6 48 5.5 N 15 26 8 14 1015.4 - 0.0
02/06:30am 15.4 10.7 7.9 61 3.8 NNE 22 30 12 16 1014.5 - 0.0
02/06:00am 15.1 10.1 8.2 63 3.5 NNE 24 32 13 17 1014.4 1014.4 0.0
02/05:30am 15.5 10.5 8.0 61 3.8 NNE 24 32 13 17 1014.6 - 0.0
02/05:00am 15.4 11.3 8.5 63 3.5 NNE 20 26 11 14 1014.5 - 0.0
02/04:30am 14.7 11.3 9.0 68 2.9 NE 17 20 9 11 1014.6 - 0.0
02/04:00am 14.6 11.5 9.0 69 2.9 NE 15 20 8 11 1014.3 - 0.0
02/03:30am 14.0 11.8 9.3 73 2.4 NE 11 13 6 7 1014.3 - 0.0
02/03:00am 14.9 11.9 9.3 69 2.9 NNE 15 19 8 10 1014.0 1014.0 0.0
02/02:30am 14.5 10.7 9.7 73 2.5 NNE 20 24 11 13 1013.5 - 0.0
02/02:00am 14.0 11.0 10.6 80 1.8 NNE 17 19 9 10 1014.5 - 0.0
02/01:30am 14.2 11.4 11.2 82 1.6 NNE 17 20 9 11 1014.9 - 0.0
02/01:00am 13.8 11.5 11.8 88 1.1 NE 15 17 8 9 1015.3 - 0.0
02/12:30am 13.4 12.3 12.1 92 0.7 NE 9 11 5 6 1015.6 - 0.0
02/12:00am 13.3 12.7 12.2 93 0.6 ESE 7 11 4 6 1016.0 1016.0 0.0
 
Date/Time
WST
Temp
°C
App
Temp
°C
Dew
Point
Rel
Hum
%
Delta-T
°C
Wind Press
QNH
hPa
Press
MSL
hPa
Rain
since 9 am
mm
Dir
 
Spd
km/h
Gust
km/h
Spd
kts
Gust
kts
01/11:30pm 13.7 12.4 12.4 92 0.7 ESE 11 13 6 7 1016.1 - 0.0
01/11:00pm 14.0 12.3 12.3 89 0.9 SSE 13 15 7 8 1016.7 - 0.0
01/10:30pm 14.3 13.4 12.5 89 1.0 SSE 9 11 5 6 1017.2 - 0.0
01/10:00pm 14.8 13.1 12.3 85 1.4 SE 13 15 7 8 1017.0 - 0.0
01/09:30pm 15.5 13.9 12.8 84 1.5 SE 13 17 7 9 1017.0 - 0.0
01/09:00pm 15.5 14.1 13.3 87 1.2 SE 13 17 7 9 1017.0 1017.0 0.0
01/08:30pm 16.2 15.4 13.9 86 1.3 SSE 11 13 6 7 1017.3 - 0.0
01/08:00pm 17.1 15.9 14.0 82 1.8 SE 13 15 7 8 1017.1 - 0.0
01/07:30pm 17.0 15.8 13.9 82 1.8 SE 13 15 7 8 1017.3 - 0.0
01/07:00pm 17.2 16.7 13.7 80 2.0 SSE 9 11 5 6 1016.9 - 0.0
01/06:30pm 18.1 17.1 13.5 74 2.6 SSE 11 13 6 7 1016.9 - 0.0
01/06:00pm 19.0 17.5 13.0 68 3.4 SSE 13 17 7 9 1016.7 1016.7 0.0
01/05:30pm 19.8 18.2 12.7 63 4.0 S 13 19 7 10 1016.8 - 0.0
01/05:00pm 20.4 17.8 11.9 58 4.7 S 17 22 9 12 1016.7 - 0.0
01/04:30pm 21.0 18.5 12.3 57 4.9 S 17 24 9 13 1016.2 - 0.0
01/04:00pm 21.5 18.3 11.4 52 5.6 S 19 24 10 13 1016.1 - 0.0
01/03:30pm 21.0 17.9 12.1 56 5.0 S 20 26 11 14 1016.0 - 0.0
01/03:00pm 22.9 21.3 8.9 40 7.5 S 7 11 4 6 1016.3 1016.3 0.0
01/02:30pm 22.8 21.2 8.2 39 7.7 SE 6 11 3 6 1016.4 - 0.0
01/02:00pm 23.0 21.3 8.3 39 7.8 NE 7 15 4 8 1016.7 - 0.0
01/01:30pm 23.0 20.0 7.7 37 8.0 ENE 13 17 7 9 1017.1 - 0.0
01/01:00pm 22.7 19.9 8.4 40 7.6 ENE 13 19 7 10 1017.6 - 0.0
01/12:30pm 22.4 18.8 8.4 40 7.4 E 17 24 9 13 1017.7 - 0.0
01/12:00pm 21.0 17.9 8.7 45 6.5 E 15 20 8 11 1018.7 1018.8 0.0
01/11:30am 20.4 17.3 8.8 47 6.1 ENE 15 22 8 12 1019.0 - 0.0
01/11:00am 19.4 15.0 8.9 50 5.5 E 22 30 12 16 1019.1 - 0.0
01/10:30am 18.8 14.1 9.3 54 5.0 E 24 32 13 17 1019.5 - 0.0
01/10:00am 17.4 13.5 9.6 60 4.1 ENE 20 26 11 14 1019.9 - 0.0
01/09:30am 16.5 12.9 9.8 64 3.5 ENE 19 28 10 15 1020.3 - 0.0
01/09:00am 15.1 11.4 10.1 72 2.6 E 20 28 11 15 1020.0 1020.1 0.0
01/08:30am 14.2 11.9 10.6 79 1.9 E 13 24 7 13 1019.9 - 0.0
01/08:00am 13.2 11.4 11.0 86 1.2 S 11 15 6 8 1020.0 - 0.0
01/07:30am 12.1 10.2 10.6 90 0.8 SE 11 13 6 7 1020.0 - 0.0
01/07:00am 11.5 9.9 10.3 92 0.6 ESE 9 9 5 5 1020.2 - 0.0
01/06:30am 11.5 10.0 10.4 93 0.6 E 9 13 5 7 1020.0 - 0.0
01/06:00am 11.6 9.3 10.3 92 0.7 E 13 15 7 8 1019.8 1019.9 0.0
01/05:30am 11.8 9.9 10.4 91 0.7 E 11 15 6 8 1019.6 - 0.0
01/05:00am 11.2 9.6 10.1 93 0.6 E 9 13 5 7 1019.0 - 0.0
01/04:30am 11.3 9.6 9.9 91 0.7 ESE 9 13 5 7 1019.2 - 0.0
01/04:00am 10.6 8.5 9.6 93 0.5 ENE 11 11 6 6 1018.9 - 0.0
01/03:30am 10.5 8.8 9.9 96 0.3 SE 9 11 5 6 1019.7 - 0.0
01/03:00am 11.0 9.4 10.2 95 0.4 SSE 9 9 5 5 1019.5 1019.6 0.0
01/02:30am 10.9 9.9 10.3 96 0.3 E 6 7 3 4 1019.4 - 0.0
01/02:00am 11.3 10.2 10.5 95 0.4 SSE 7 9 4 5 1019.5 - 0.0
01/01:30am 11.1 9.5 10.2 94 0.5 SE 9 9 5 5 1019.2 - 0.0
01/01:00am 11.7 10.2 10.7 94 0.5 SSE 9 11 5 6 1019.8 - 0.0
01/12:30am 11.7 11.2 10.8 94 0.5 ESE 4 9 2 5 1019.7 - 0.0
01/12:00am 11.9 10.5 10.9 94 0.5 SE 9 11 5 6 1019.5 1019.6 0.0
 
Date/Time
WST
Temp
°C
App
Temp
°C
Dew
Point
Rel
Hum
%
Delta-T
°C
Wind Press
QNH
hPa
Press
MSL
hPa
Rain
since 9 am
mm
Dir
 
Spd
km/h
Gust
km/h
Spd
kts
Gust
kts
31/11:30pm 12.1 10.7 10.9 92 0.6 SSE 9 9 5 5 1019.9 - 0.0
31/11:00pm 12.4 10.7 11.1 92 0.7 SSE 11 13 6 7 1019.9 - 0.0
31/10:30pm 12.8 11.6 11.6 92 0.6 SE 9 11 5 6 1020.0 - 0.0
31/10:00pm 12.8 11.6 11.5 92 0.7 SE 9 11 5 6 1020.3 - 0.0
31/09:30pm 12.8 11.2 11.7 93 0.6 SSE 11 11 6 6 1020.6 - 0.0
31/09:00pm 13.1 11.9 11.6 91 0.8 SE 9 9 5 5 1020.5 1020.6 0.0
31/08:30pm 13.4 12.3 11.9 91 0.8 SE 9 13 5 7 1019.8 - 0.0
31/08:00pm 13.9 13.3 12.2 89 0.9 SE 7 9 4 5 1019.9 - 0.0
31/07:30pm 13.9 12.8 12.1 89 1.0 ESE 9 11 5 6 1019.5 - 0.0
31/07:00pm 14.6 13.2 12.1 85 1.4 SSE 11 13 6 7 1019.5 - 0.0
31/06:30pm 15.9 14.8 11.9 77 2.2 SSE 9 11 5 6 1019.4 - 0.0
31/06:00pm 17.1 14.8 11.8 71 2.9 S 15 20 8 11 1019.5 1019.6 0.0
31/05:30pm 18.0 15.1 11.1 64 3.7 S 17 22 9 12 1019.3 - 0.0
31/05:00pm 18.5 15.3 11.3 63 3.9 S 19 26 10 14 1019.0 - 0.0
31/04:30pm 19.3 15.8 11.0 58 4.5 S 20 26 11 14 1018.9 - 0.0
31/04:00pm 20.3 16.9 10.5 53 5.3 S 19 24 10 13 1018.4 - 0.0
31/03:30pm 20.2 16.6 10.0 52 5.5 S 19 26 10 14 1018.3 - 0.0
31/03:00pm 20.0 16.4 10.5 54 5.1 S 20 32 11 17 1018.4 1018.5 0.0
31/02:30pm 20.9 18.0 11.1 53 5.4 S 17 26 9 14 1018.2 - 0.0
31/02:00pm 20.9 17.4 10.2 50 5.8 SSW 19 28 10 15 1018.2 - 0.0
31/01:30pm 21.4 19.0 9.9 48 6.2 S 13 28 7 15 1018.2 - 0.0
31/01:00pm 22.0 19.2 10.0 46 6.5 SSE 15 20 8 11 1018.4 - 0.0
31/12:30pm 19.8 17.2 9.4 51 5.5 S 13 28 7 15 1018.8 - 0.0
31/12:00pm 19.3 16.8 9.7 53 5.1 SSE 13 17 7 9 1019.1 1019.2 0.0
31/11:30am 18.9 15.2 10.3 57 4.6 S 20 26 11 14 1019.4 - 0.0
31/11:00am 19.7 18.1 11.4 58 4.6 E 11 19 6 10 1019.4 - 0.0

Other Formats:

Comma delimited format used in spreadsheet applications
http://www.bom.gov.au/fwo/IDW60801/IDW60801.94403.axf

JavaScript Object Notation format (JSON) in row-major order
http://www.bom.gov.au/fwo/IDW60801/IDW60801.94403.json